createdAt,value
2022-08-11T00:02:59.960Z,6.35
2022-08-11T00:43:53.705Z,4.55
2022-08-11T00:47:08.356Z,4.32
2022-08-11T00:59:51.574Z,4.00
2022-08-11T01:04:12.319Z,3.80
2022-08-11T01:24:59.646Z,3.47
2022-08-11T01:52:16.377Z,2.83
2022-08-11T01:56:19.478Z,3.30
2022-08-11T01:59:52.487Z,3.30
2022-08-11T02:40:44.841Z,4.10
2022-08-11T02:52:34.075Z,3.88
2022-08-11T02:54:02.976Z,3.90
2022-08-11T03:42:10.097Z,6.50
2022-08-11T04:43:32.114Z,6.70
2022-08-11T04:46:22.859Z,6.05
2022-08-11T04:50:06.052Z,6.45
2022-08-11T04:57:09.458Z,7.15
2022-08-11T05:05:31.359Z,6.85
2022-08-11T05:08:44.294Z,5.65
2022-08-11T05:11:14.010Z,6.43
2022-08-11T05:14:07.176Z,6.82
2022-08-11T05:17:00.143Z,6.05
2022-08-11T05:19:48.833Z,6.15
2022-08-11T05:22:47.767Z,6.20
2022-08-11T05:26:46.486Z,6.20
2022-08-11T05:29:24.197Z,6.63
2022-08-11T05:32:21.506Z,6.65
2022-08-11T05:34:55.399Z,7.38
2022-08-11T05:37:34.089Z,6.93
2022-08-11T05:40:31.611Z,6.80
2022-08-11T05:43:19.149Z,7.80
2022-08-11T05:46:16.192Z,7.00
2022-08-11T05:49:02.125Z,6.90
2022-08-11T05:52:05.415Z,7.30
2022-08-11T05:55:06.407Z,6.28
2022-08-11T05:57:50.662Z,6.45
2022-08-11T06:00:19.696Z,6.50
2022-08-11T06:02:49.934Z,6.55
2022-08-11T06:05:19.525Z,6.38
2022-08-11T06:07:49.843Z,6.03
2022-08-11T06:10:27.825Z,5.95
2022-08-11T06:12:56.104Z,6.13
2022-08-11T06:15:23.674Z,6.30
2022-08-11T06:17:51.398Z,6.18
2022-08-11T06:20:22.291Z,5.63
2022-08-11T06:22:58.264Z,5.53
2022-08-11T06:25:33.367Z,5.28
2022-08-11T06:28:00.581Z,5.18
2022-08-11T06:30:39.638Z,4.82
2022-08-11T06:33:14.068Z,5.50
2022-08-11T06:35:57.747Z,5.60
2022-08-11T06:38:39.133Z,4.65
2022-08-11T06:41:32.301Z,4.35
2022-08-11T06:44:14.213Z,4.30
2022-08-11T06:46:43.928Z,3.87
2022-08-11T06:49:32.195Z,4.57
2022-08-11T06:52:02.944Z,4.40
2022-08-11T06:57:30.941Z,3.88
2022-08-11T07:00:17.905Z,3.80
2022-08-11T07:03:00.717Z,3.75
2022-08-11T07:05:45.281Z,3.42
2022-08-11T07:09:01.962Z,3.97
2022-08-11T07:11:59.694Z,3.47
2022-08-11T07:14:46.827Z,3.28
2022-08-11T07:17:17.613Z,3.85
2022-08-11T07:20:09.568Z,3.80
2022-08-11T07:22:56.085Z,3.60
2022-08-11T07:25:43.431Z,2.85
2022-08-11T07:28:33.116Z,2.92
2022-08-11T07:31:14.605Z,2.80
2022-08-11T07:34:07.815Z,3.80
2022-08-11T07:36:43.319Z,3.28
2022-08-11T07:39:16.942Z,3.05
2022-08-11T07:41:44.648Z,4.18
2022-08-11T07:44:12.372Z,3.70
2022-08-11T07:47:01.093Z,3.50
2022-08-11T07:49:48.217Z,2.55
2022-08-11T07:52:30.775Z,2.38
2022-08-11T07:58:16.771Z,1.90
2022-08-11T08:01:10.448Z,1.67
2022-08-11T08:04:03.452Z,1.83
2022-08-11T08:06:52.033Z,1.80
2022-08-11T08:09:39.578Z,2.33
2022-08-11T08:12:26.774Z,2.10
2022-08-11T08:15:14.054Z,2.08
2022-08-11T08:18:09.288Z,1.67
2022-08-11T08:20:51.875Z,1.80
2022-08-11T08:23:35.933Z,2.05
2022-08-11T08:26:27.259Z,2.10
2022-08-11T08:29:16.058Z,1.90
2022-08-11T08:31:43.732Z,1.60
2022-08-11T08:34:11.156Z,1.75
2022-08-11T08:36:40.462Z,1.40
2022-08-11T08:39:07.576Z,1.67
2022-08-11T08:41:36.983Z,1.63
2022-08-11T08:44:36.782Z,1.85
2022-08-11T08:46:58.442Z,2.00
2022-08-11T08:49:40.537Z,2.25
2022-08-11T08:52:32.061Z,2.15
2022-08-11T08:54:57.251Z,1.50
2022-08-11T08:57:28.127Z,1.70
2022-08-11T08:59:56.700Z,1.80
2022-08-11T09:02:33.873Z,1.90
2022-08-11T09:05:10.066Z,1.52
2022-08-11T09:07:40.286Z,1.90
2022-08-11T09:10:11.558Z,1.60
2022-08-11T09:12:42.338Z,1.45
2022-08-11T09:15:11.663Z,1.50
2022-08-11T09:17:45.383Z,1.30
2022-08-11T09:20:24.687Z,1.63
2022-08-11T09:26:22.629Z,1.48
2022-08-11T09:28:59.947Z,2.00
2022-08-11T09:31:34.606Z,1.23
2022-08-11T09:34:06.130Z,1.77
2022-08-11T09:36:52.690Z,1.70
2022-08-11T09:39:39.036Z,1.60
2022-08-11T09:42:06.794Z,1.40
2022-08-11T09:44:52.830Z,1.40
2022-08-11T09:47:23.662Z,1.45
2022-08-11T09:49:56.243Z,1.20
2022-08-11T09:52:24.187Z,1.65
2022-08-11T09:54:52.324Z,1.20
2022-08-11T09:57:39.918Z,1.38
2022-08-11T10:00:13.069Z,1.70
2022-08-11T10:02:44.642Z,1.35
2022-08-11T10:05:31.220Z,1.55
2022-08-11T10:07:58.520Z,1.38
2022-08-11T10:10:25.615Z,1.85
2022-08-11T10:13:02.943Z,1.50
2022-08-11T10:15:34.304Z,1.45
2022-08-11T10:18:24.493Z,1.80
2022-08-11T10:20:55.018Z,1.55
2022-08-11T10:24:00.228Z,1.65
2022-08-11T10:26:47.552Z,1.40
2022-08-11T10:29:37.528Z,1.15
2022-08-11T10:32:31.832Z,1.55
2022-08-11T10:35:00.529Z,2.15
2022-08-11T10:38:07.306Z,1.30
2022-08-11T10:40:29.940Z,1.20
2022-08-11T10:43:02.844Z,1.23
2022-08-11T10:45:49.969Z,1.20
2022-08-11T10:48:21.234Z,1.50
2022-08-11T10:51:07.373Z,1.35
2022-08-11T10:53:54.411Z,1.40
2022-08-11T10:56:40.299Z,1.67
2022-08-11T10:59:11.554Z,1.58
2022-08-11T11:01:42.598Z,1.67
2022-08-11T11:04:17.844Z,1.50
2022-08-11T11:06:54.441Z,1.33
2022-08-11T11:09:32.623Z,1.30
2022-08-11T11:12:53.321Z,1.10
2022-08-11T11:15:41.118Z,1.30
2022-08-11T11:18:37.668Z,1.35
2022-08-11T11:21:12.987Z,1.63
2022-08-11T11:24:37.420Z,1.65
2022-08-11T11:27:16.641Z,1.60
2022-08-11T11:30:01.901Z,1.33
2022-08-11T11:32:49.783Z,1.42
2022-08-11T11:35:28.516Z,1.23
2022-08-11T11:38:05.214Z,1.42
2022-08-11T11:40:33.744Z,1.50
2022-08-11T11:43:01.004Z,1.40
2022-08-11T11:45:28.213Z,1.95
2022-08-11T11:47:56.441Z,1.50
2022-08-11T11:50:37.511Z,1.30
2022-08-11T11:53:06.604Z,1.50
2022-08-11T11:55:34.817Z,1.48
2022-08-11T11:58:22.200Z,1.20
2022-08-11T12:01:08.563Z,1.50
2022-08-11T12:03:37.995Z,1.38
2022-08-11T12:06:05.286Z,1.10
2022-08-11T12:08:32.470Z,1.65
2022-08-11T12:11:20.827Z,1.70
2022-08-11T12:13:50.521Z,1.42
2022-08-11T12:16:33.759Z,1.35
2022-08-11T12:19:06.651Z,1.30
2022-08-11T12:21:35.310Z,1.45
2022-08-11T12:24:22.607Z,1.50
2022-08-11T12:27:17.645Z,1.83
2022-08-11T12:29:55.070Z,1.40
2022-08-11T12:32:26.065Z,1.30
2022-08-11T12:34:53.881Z,1.45
2022-08-11T12:37:25.296Z,1.23
2022-08-11T12:40:43.549Z,1.25
2022-08-11T12:43:37.730Z,1.40
2022-08-11T12:46:09.290Z,1.25
2022-08-11T12:48:58.487Z,1.30
2022-08-11T12:52:12.173Z,1.40
2022-08-11T12:54:45.363Z,1.58
2022-08-11T12:57:43.728Z,1.60
2022-08-11T13:00:29.922Z,1.30
2022-08-11T13:03:16.286Z,1.50
2022-08-11T13:05:45.172Z,1.30
2022-08-11T13:08:15.170Z,1.50
2022-08-11T13:11:02.591Z,1.52
2022-08-11T13:13:52.786Z,1.52
2022-08-11T13:16:17.602Z,1.58
2022-08-11T13:18:45.115Z,1.65
2022-08-11T13:21:20.592Z,1.75
2022-08-11T13:24:01.265Z,1.27
2022-08-11T13:26:46.926Z,1.38
2022-08-11T13:29:28.239Z,1.45
2022-08-11T13:32:02.132Z,1.50
2022-08-11T13:34:33.780Z,1.35
2022-08-11T13:37:04.322Z,1.40
2022-08-11T13:39:32.364Z,1.38
2022-08-11T13:42:02.543Z,1.50
2022-08-11T13:44:31.371Z,1.13
2022-08-11T13:47:04.326Z,1.48
2022-08-11T13:49:33.679Z,1.13
2022-08-11T13:52:01.188Z,1.67
2022-08-11T13:54:40.473Z,1.88
2022-08-11T13:57:09.356Z,1.40
2022-08-11T13:59:51.870Z,1.27
2022-08-11T14:02:29.072Z,1.40
2022-08-11T14:05:12.305Z,1.40
2022-08-11T14:07:41.713Z,1.42
2022-08-11T14:10:10.476Z,1.17
2022-08-11T14:12:56.594Z,1.35
2022-08-11T14:15:32.965Z,1.25
2022-08-11T14:18:05.156Z,1.58
2022-08-11T14:20:52.784Z,1.63
2022-08-11T14:23:26.976Z,1.20
2022-08-11T14:26:13.483Z,1.40
2022-08-11T14:28:45.046Z,1.40
2022-08-11T14:31:15.027Z,1.77
2022-08-11T14:34:01.040Z,1.30
2022-08-11T14:36:32.757Z,1.23
2022-08-11T14:39:02.390Z,1.40
2022-08-11T14:42:11.119Z,1.60
2022-08-11T14:44:54.920Z,1.60
2022-08-11T14:47:23.727Z,1.40
2022-08-11T14:49:58.228Z,1.35
2022-08-11T14:52:38.369Z,1.30
2022-08-11T14:55:24.487Z,1.40
2022-08-11T14:57:55.519Z,1.48
2022-08-11T15:00:23.599Z,1.33
2022-08-11T15:03:09.442Z,1.20
2022-08-11T15:05:42.143Z,1.48
2022-08-11T15:08:47.481Z,1.48
2022-08-11T15:11:36.075Z,1.30
2022-08-11T15:14:05.984Z,1.40
2022-08-11T15:16:52.144Z,1.20
2022-08-11T15:19:21.504Z,1.17
2022-08-11T15:22:08.705Z,1.30
2022-08-11T15:24:37.174Z,1.20
2022-08-11T15:27:25.094Z,1.50
2022-08-11T15:30:29.881Z,1.85
2022-08-11T15:33:21.274Z,1.30
2022-08-11T15:36:08.034Z,1.30
2022-08-11T15:38:36.369Z,1.00
2022-08-11T15:41:40.280Z,1.30
2022-08-11T15:44:58.944Z,1.10
2022-08-11T15:47:18.429Z,1.10
2022-08-11T15:50:10.601Z,1.58
2022-08-11T15:52:38.904Z,1.38
2022-08-11T15:55:08.847Z,1.20
2022-08-11T15:57:56.075Z,2.28
2022-08-11T16:00:43.195Z,1.25
2022-08-11T16:04:06.647Z,1.35
2022-08-11T16:06:17.015Z,1.67
2022-08-11T16:08:45.213Z,1.35
2022-08-11T16:11:13.526Z,1.67
2022-08-11T16:13:41.121Z,1.38
2022-08-11T16:16:14.953Z,1.50
2022-08-11T16:18:51.699Z,1.20
2022-08-11T16:21:35.751Z,1.45
2022-08-11T16:24:08.654Z,1.40
2022-08-11T16:27:08.155Z,1.58
2022-08-11T16:29:50.670Z,1.30
2022-08-11T16:32:23.450Z,1.80
2022-08-11T16:35:14.609Z,2.05
2022-08-11T16:38:02.559Z,1.30
2022-08-11T16:40:31.563Z,1.40
2022-08-11T16:43:17.662Z,1.70
2022-08-11T16:46:03.510Z,2.00
2022-08-11T16:48:38.466Z,1.45
2022-08-11T16:51:07.427Z,1.27
2022-08-11T16:53:47.347Z,1.58
2022-08-11T16:56:45.044Z,1.23
2022-08-11T16:59:18.733Z,1.42
2022-08-11T17:01:53.482Z,1.10
2022-08-11T17:05:05.818Z,1.30
2022-08-11T17:07:51.661Z,1.60
2022-08-11T17:11:03.621Z,1.20
2022-08-11T17:13:38.149Z,1.33
2022-08-11T17:16:12.538Z,1.38
2022-08-11T17:18:54.899Z,1.35
2022-08-11T17:21:26.434Z,1.60
2022-08-11T17:23:57.393Z,1.20
2022-08-11T17:26:48.699Z,1.73
2022-08-11T17:29:19.079Z,1.40
2022-08-11T17:32:05.888Z,1.60
2022-08-11T17:34:52.379Z,1.40
2022-08-11T17:37:20.514Z,1.50
2022-08-11T17:39:47.841Z,1.30
2022-08-11T17:42:36.221Z,1.35
2022-08-11T17:45:23.026Z,1.13
2022-08-11T17:48:08.788Z,1.35
2022-08-11T17:50:36.586Z,1.27
2022-08-11T17:53:23.136Z,1.55
2022-08-11T17:56:09.360Z,1.40
2022-08-11T17:58:55.339Z,1.38
2022-08-11T18:01:24.205Z,1.15
2022-08-11T18:03:57.723Z,1.58
2022-08-11T18:06:34.130Z,1.45
2022-08-11T18:09:24.585Z,1.40
2022-08-11T18:12:12.732Z,1.30
2022-08-11T18:15:02.289Z,1.75
2022-08-11T18:17:47.731Z,1.73
2022-08-11T18:20:33.278Z,1.60
2022-08-11T18:23:21.933Z,1.40
2022-08-11T18:26:27.733Z,1.60
2022-08-11T18:29:14.629Z,1.40
2022-08-11T18:32:08.620Z,1.65
2022-08-11T18:34:59.415Z,1.70
2022-08-11T18:37:46.335Z,1.52
2022-08-11T18:40:39.369Z,1.73
2022-08-11T18:43:28.955Z,1.50
2022-08-11T18:46:20.282Z,1.60
2022-08-11T18:49:14.515Z,1.55
2022-08-11T18:52:05.584Z,1.40
2022-08-11T18:54:53.439Z,1.50
2022-08-11T18:57:53.844Z,1.63
2022-08-11T19:00:43.932Z,2.05
2022-08-11T19:03:31.454Z,1.23
2022-08-11T19:06:38.345Z,1.60
2022-08-11T19:09:29.240Z,1.60
2022-08-11T19:12:15.817Z,1.80
2022-08-11T19:15:02.046Z,1.50
2022-08-11T19:17:48.956Z,1.80
2022-08-11T19:20:45.433Z,1.90
2022-08-11T19:23:34.472Z,1.75
2022-08-11T19:26:21.092Z,2.10
2022-08-11T19:29:08.139Z,1.70
2022-08-11T19:31:54.654Z,2.15
2022-08-11T19:34:42.181Z,1.90
2022-08-11T19:37:29.137Z,1.77
2022-08-11T19:40:25.875Z,1.77
2022-08-11T19:43:19.955Z,2.22
2022-08-11T19:46:14.011Z,1.98
2022-08-11T19:49:00.627Z,1.65
2022-08-11T19:51:47.545Z,2.20
2022-08-11T19:54:43.397Z,2.00
2022-08-11T19:57:29.081Z,2.10
2022-08-11T20:00:14.852Z,2.30
2022-08-11T20:03:00.248Z,2.53
2022-08-11T20:05:55.734Z,2.08
2022-08-11T20:08:48.329Z,2.03
2022-08-11T20:11:34.321Z,1.90
2022-08-11T20:14:20.516Z,1.92
2022-08-11T20:17:06.534Z,2.10
2022-08-11T20:19:57.198Z,2.13
2022-08-11T20:22:46.887Z,2.50
2022-08-11T20:25:33.703Z,1.90
2022-08-11T20:28:21.883Z,2.58
2022-08-11T20:31:08.357Z,2.28
2022-08-11T20:33:54.721Z,2.10
2022-08-11T20:36:40.619Z,2.20
2022-08-11T20:39:27.384Z,2.22
2022-08-11T20:42:13.333Z,2.20
2022-08-11T20:44:59.750Z,2.40
2022-08-11T20:47:59.755Z,2.42
2022-08-11T20:50:47.718Z,2.50
2022-08-11T20:53:38.996Z,2.35
2022-08-11T20:56:28.556Z,2.17
2022-08-11T20:59:18.929Z,2.55
2022-08-11T21:05:15.803Z,2.30
2022-08-11T21:08:08.245Z,3.00
2022-08-11T21:10:56.633Z,2.38
2022-08-11T21:13:46.522Z,2.50
2022-08-11T21:16:38.255Z,2.78
2022-08-11T21:20:00.533Z,2.50
2022-08-11T21:22:42.403Z,2.55
2022-08-11T21:25:45.958Z,2.58
2022-08-11T21:28:32.368Z,2.47
2022-08-11T21:31:20.038Z,3.00
2022-08-11T21:34:05.919Z,3.25
2022-08-11T21:36:51.931Z,5.75
2022-08-11T21:39:40.212Z,2.50
2022-08-11T21:42:26.297Z,2.65
2022-08-11T21:45:13.162Z,2.45
2022-08-11T21:48:00.962Z,2.72
2022-08-11T21:50:47.650Z,2.20
2022-08-11T21:53:34.141Z,2.25
2022-08-11T21:56:20.459Z,2.50
2022-08-11T21:59:07.205Z,2.92
2022-08-11T22:01:53.465Z,2.60
2022-08-11T22:04:39.579Z,2.22
2022-08-11T22:07:25.489Z,2.50
2022-08-11T22:10:40.699Z,2.58
2022-08-11T22:13:17.261Z,3.45
2022-08-11T22:16:03.183Z,3.58
2022-08-11T22:18:52.331Z,2.45
2022-08-11T22:22:02.600Z,2.50
2022-08-11T22:24:47.307Z,2.50
2022-08-11T22:27:34.334Z,2.80
2022-08-11T22:30:20.508Z,2.92
2022-08-11T22:33:06.315Z,3.78
2022-08-11T22:35:53.168Z,2.33
2022-08-11T22:38:39.291Z,4.72
2022-08-11T22:41:27.975Z,3.97
2022-08-11T22:45:45.547Z,2.47
2022-08-11T22:49:57.056Z,2.60
2022-08-11T22:52:54.269Z,2.55
2022-08-11T22:56:13.392Z,2.20
2022-08-11T22:59:49.412Z,2.10
2022-08-11T23:12:06.687Z,2.20
2022-08-11T23:19:09.038Z,2.00
2022-08-11T23:33:47.643Z,1.95
